METAR Data
IDs: Format: Raw Decoded Include TAF

Data at: 0155 UTC 01 Mar 2021

UUWW 010130Z 33003MPS CAVOK M01/M02 Q1021 R06/510242 NOSIG